sensor_id;sensor_type;location;lat;lon;timestamp;P1;durP1;ratioP1;P2;durP2;ratioP2
44228;SDS011;29904;51.058;5.378;2023-08-06T00:01:17;2.35;;;0.70;;
44228;SDS011;29904;51.058;5.378;2023-08-06T00:03:46;1.50;;;0.80;;
44228;SDS011;29904;51.058;5.378;2023-08-06T00:06:11;2.27;;;0.67;;
44228;SDS011;29904;51.058;5.378;2023-08-06T00:08:39;2.63;;;0.73;;
44228;SDS011;29904;51.058;5.378;2023-08-06T00:11:05;1.50;;;0.73;;
44228;SDS011;29904;51.058;5.378;2023-08-06T00:13:31;1.33;;;0.73;;
44228;SDS011;29904;51.058;5.378;2023-08-06T00:16:07;1.47;;;0.70;;
44228;SDS011;29904;51.058;5.378;2023-08-06T00:18:36;1.30;;;0.70;;
44228;SDS011;29904;51.058;5.378;2023-08-06T00:21:02;1.80;;;0.75;;
44228;SDS011;29904;51.058;5.378;2023-08-06T00:23:28;3.25;;;0.75;;
44228;SDS011;29904;51.058;5.378;2023-08-06T00:25:54;1.50;;;0.80;;
44228;SDS011;29904;51.058;5.378;2023-08-06T00:28:20;2.20;;;0.60;;
44228;SDS011;29904;51.058;5.378;2023-08-06T00:30:46;1.27;;;0.60;;
44228;SDS011;29904;51.058;5.378;2023-08-06T00:33:11;1.80;;;0.70;;
44228;SDS011;29904;51.058;5.378;2023-08-06T00:35:37;0.77;;;0.60;;
44228;SDS011;29904;51.058;5.378;2023-08-06T00:38:06;2.13;;;0.60;;
44228;SDS011;29904;51.058;5.378;2023-08-06T00:40:32;3.10;;;0.67;;
44228;SDS011;29904;51.058;5.378;2023-08-06T00:42:58;2.53;;;0.60;;
44228;SDS011;29904;51.058;5.378;2023-08-06T00:45:24;3.30;;;0.70;;
44228;SDS011;29904;51.058;5.378;2023-08-06T00:47:50;3.28;;;0.73;;
44228;SDS011;29904;51.058;5.378;2023-08-06T00:50:16;1.77;;;0.60;;
44228;SDS011;29904;51.058;5.378;2023-08-06T00:52:42;0.95;;;0.70;;
44228;SDS011;29904;51.058;5.378;2023-08-06T00:55:09;2.15;;;0.75;;
44228;SDS011;29904;51.058;5.378;2023-08-06T00:57:37;2.53;;;0.80;;
44228;SDS011;29904;51.058;5.378;2023-08-06T01:00:03;2.27;;;0.80;;
44228;SDS011;29904;51.058;5.378;2023-08-06T01:02:29;1.45;;;0.63;;
44228;SDS011;29904;51.058;5.378;2023-08-06T01:04:57;1.90;;;0.60;;
44228;SDS011;29904;51.058;5.378;2023-08-06T01:07:45;3.00;;;0.80;;
44228;SDS011;29904;51.058;5.378;2023-08-06T01:15:44;2.25;;;0.57;;
44228;SDS011;29904;51.058;5.378;2023-08-06T01:18:13;1.95;;;0.60;;
44228;SDS011;29904;51.058;5.378;2023-08-06T01:20:39;2.20;;;0.60;;
44228;SDS011;29904;51.058;5.378;2023-08-06T01:23:05;2.28;;;0.60;;
44228;SDS011;29904;51.058;5.378;2023-08-06T01:25:39;2.53;;;0.60;;
44228;SDS011;29904;51.058;5.378;2023-08-06T01:28:39;1.95;;;0.70;;
44228;SDS011;29904;51.058;5.378;2023-08-06T01:31:15;1.30;;;0.40;;
44228;SDS011;29904;51.058;5.378;2023-08-06T01:33:47;1.57;;;0.50;;
44228;SDS011;29904;51.058;5.378;2023-08-06T01:36:16;2.80;;;0.40;;
44228;SDS011;29904;51.058;5.378;2023-08-06T01:38:43;1.20;;;0.40;;
44228;SDS011;29904;51.058;5.378;2023-08-06T01:41:09;3.63;;;0.50;;
44228;SDS011;29904;51.058;5.378;2023-08-06T01:43:37;0.85;;;0.50;;
44228;SDS011;29904;51.058;5.378;2023-08-06T01:46:03;1.30;;;0.50;;
44228;SDS011;29904;51.058;5.378;2023-08-06T01:48:29;1.57;;;0.50;;
44228;SDS011;29904;51.058;5.378;2023-08-06T01:50:56;0.60;;;0.30;;
44228;SDS011;29904;51.058;5.378;2023-08-06T01:53:22;2.65;;;0.40;;
44228;SDS011;29904;51.058;5.378;2023-08-06T01:55:48;2.47;;;0.43;;
44228;SDS011;29904;51.058;5.378;2023-08-06T01:58:16;2.58;;;0.40;;
44228;SDS011;29904;51.058;5.378;2023-08-06T02:00:42;2.10;;;0.40;;
44228;SDS011;29904;51.058;5.378;2023-08-06T02:03:07;1.47;;;0.50;;
44228;SDS011;29904;51.058;5.378;2023-08-06T02:05:33;1.88;;;0.40;;
44228;SDS011;29904;51.058;5.378;2023-08-06T02:07:59;2.20;;;0.47;;
44228;SDS011;29904;51.058;5.378;2023-08-06T02:10:24;1.23;;;0.40;;
44228;SDS011;29904;51.058;5.378;2023-08-06T02:12:50;1.40;;;0.30;;
44228;SDS011;29904;51.058;5.378;2023-08-06T02:15:16;0.60;;;0.30;;
44228;SDS011;29904;51.058;5.378;2023-08-06T02:17:42;0.93;;;0.32;;
44228;SDS011;29904;51.058;5.378;2023-08-06T02:20:07;1.40;;;0.33;;
44228;SDS011;29904;51.058;5.378;2023-08-06T02:22:33;0.60;;;0.37;;
44228;SDS011;29904;51.058;5.378;2023-08-06T02:24:59;3.30;;;0.40;;
44228;SDS011;29904;51.058;5.378;2023-08-06T02:27:25;1.10;;;0.50;;
44228;SDS011;29904;51.058;5.378;2023-08-06T02:29:53;2.90;;;0.40;;
44228;SDS011;29904;51.058;5.378;2023-08-06T02:32:18;2.10;;;0.70;;
44228;SDS011;29904;51.058;5.378;2023-08-06T02:34:44;1.10;;;0.40;;
44228;SDS011;29904;51.058;5.378;2023-08-06T02:37:11;1.60;;;0.40;;
44228;SDS011;29904;51.058;5.378;2023-08-06T02:39:37;2.10;;;0.50;;
44228;SDS011;29904;51.058;5.378;2023-08-06T02:42:06;2.13;;;0.50;;
44228;SDS011;29904;51.058;5.378;2023-08-06T02:44:32;1.40;;;0.40;;
44228;SDS011;29904;51.058;5.378;2023-08-06T02:46:59;1.88;;;0.50;;
44228;SDS011;29904;51.058;5.378;2023-08-06T02:49:25;1.30;;;0.50;;
44228;SDS011;29904;51.058;5.378;2023-08-06T02:51:51;1.25;;;0.50;;
44228;SDS011;29904;51.058;5.378;2023-08-06T02:54:17;1.15;;;0.50;;
44228;SDS011;29904;51.058;5.378;2023-08-06T02:56:43;2.77;;;0.60;;
44228;SDS011;29904;51.058;5.378;2023-08-06T02:59:12;2.10;;;0.60;;
44228;SDS011;29904;51.058;5.378;2023-08-06T03:01:39;1.05;;;0.68;;
44228;SDS011;29904;51.058;5.378;2023-08-06T03:04:04;1.45;;;0.70;;
44228;SDS011;29904;51.058;5.378;2023-08-06T03:06:31;1.27;;;0.52;;
44228;SDS011;29904;51.058;5.378;2023-08-06T03:08:56;0.50;;;0.50;;
44228;SDS011;29904;51.058;5.378;2023-08-06T03:11:22;1.77;;;0.60;;
44228;SDS011;29904;51.058;5.378;2023-08-06T03:13:48;2.28;;;0.68;;
44228;SDS011;29904;51.058;5.378;2023-08-06T03:16:14;2.40;;;0.50;;
44228;SDS011;29904;51.058;5.378;2023-08-06T03:18:40;1.53;;;0.53;;
44228;SDS011;29904;51.058;5.378;2023-08-06T03:21:07;1.45;;;0.68;;
44228;SDS011;29904;51.058;5.378;2023-08-06T03:23:33;1.53;;;0.50;;
44228;SDS011;29904;51.058;5.378;2023-08-06T03:26:02;1.67;;;0.60;;
44228;SDS011;29904;51.058;5.378;2023-08-06T03:28:28;1.20;;;0.70;;
44228;SDS011;29904;51.058;5.378;2023-08-06T03:31:03;3.05;;;0.70;;
44228;SDS011;29904;51.058;5.378;2023-08-06T03:33:31;1.80;;;0.80;;
44228;SDS011;29904;51.058;5.378;2023-08-06T03:35:56;1.90;;;0.70;;
44228;SDS011;29904;51.058;5.378;2023-08-06T03:38:22;0.70;;;0.53;;
44228;SDS011;29904;51.058;5.378;2023-08-06T03:40:50;1.27;;;0.63;;
44228;SDS011;29904;51.058;5.378;2023-08-06T03:43:16;1.42;;;0.80;;
44228;SDS011;29904;51.058;5.378;2023-08-06T03:45:41;1.23;;;0.70;;
44228;SDS011;29904;51.058;5.378;2023-08-06T03:48:07;1.30;;;0.50;;
44228;SDS011;29904;51.058;5.378;2023-08-06T03:50:34;2.67;;;0.63;;
44228;SDS011;29904;51.058;5.378;2023-08-06T03:53:00;1.17;;;0.60;;
44228;SDS011;29904;51.058;5.378;2023-08-06T03:55:28;1.48;;;0.52;;
44228;SDS011;29904;51.058;5.378;2023-08-06T03:57:53;1.02;;;0.70;;
44228;SDS011;29904;51.058;5.378;2023-08-06T04:00:19;1.80;;;1.00;;
44228;SDS011;29904;51.058;5.378;2023-08-06T04:02:47;1.77;;;0.90;;
44228;SDS011;29904;51.058;5.378;2023-08-06T04:05:13;1.45;;;0.70;;
44228;SDS011;29904;51.058;5.378;2023-08-06T04:07:38;1.13;;;0.70;;
44228;SDS011;29904;51.058;5.378;2023-08-06T04:10:04;1.20;;;0.60;;
44228;SDS011;29904;51.058;5.378;2023-08-06T04:12:30;2.17;;;0.63;;
44228;SDS011;29904;51.058;5.378;2023-08-06T04:14:57;3.53;;;0.73;;
44228;SDS011;29904;51.058;5.378;2023-08-06T04:17:25;0.85;;;0.60;;
44228;SDS011;29904;51.058;5.378;2023-08-06T04:19:51;0.77;;;0.60;;
44228;SDS011;29904;51.058;5.378;2023-08-06T04:22:18;0.95;;;0.60;;
44228;SDS011;29904;51.058;5.378;2023-08-06T04:24:46;1.33;;;0.63;;
44228;SDS011;29904;51.058;5.378;2023-08-06T04:27:13;2.17;;;0.60;;
44228;SDS011;29904;51.058;5.378;2023-08-06T04:29:40;1.83;;;0.50;;
44228;SDS011;29904;51.058;5.378;2023-08-06T04:32:06;0.88;;;0.40;;
44228;SDS011;29904;51.058;5.378;2023-08-06T04:34:33;0.60;;;0.40;;
44228;SDS011;29904;51.058;5.378;2023-08-06T04:36:59;0.68;;;0.47;;
44228;SDS011;29904;51.058;5.378;2023-08-06T04:39:28;1.13;;;0.70;;
44228;SDS011;29904;51.058;5.378;2023-08-06T04:41:54;3.05;;;0.90;;
44228;SDS011;29904;51.058;5.378;2023-08-06T04:44:21;1.47;;;0.90;;
44228;SDS011;29904;51.058;5.378;2023-08-06T04:46:49;3.45;;;1.27;;
44228;SDS011;29904;51.058;5.378;2023-08-06T04:49:15;2.17;;;1.05;;
44228;SDS011;29904;51.058;5.378;2023-08-06T04:51:40;3.88;;;1.50;;
44228;SDS011;29904;51.058;5.378;2023-08-06T04:54:06;2.58;;;1.52;;
44228;SDS011;29904;51.058;5.378;2023-08-06T04:56:34;6.75;;;1.60;;
44228;SDS011;29904;51.058;5.378;2023-08-06T04:59:00;2.90;;;1.50;;
44228;SDS011;29904;51.058;5.378;2023-08-06T05:01:26;3.47;;;1.60;;
44228;SDS011;29904;51.058;5.378;2023-08-06T05:03:54;4.37;;;1.60;;
44228;SDS011;29904;51.058;5.378;2023-08-06T05:06:19;2.37;;;1.87;;
44228;SDS011;29904;51.058;5.378;2023-08-06T05:08:45;2.90;;;1.70;;
44228;SDS011;29904;51.058;5.378;2023-08-06T05:11:13;3.83;;;2.10;;
44228;SDS011;29904;51.058;5.378;2023-08-06T05:13:38;2.70;;;1.37;;
44228;SDS011;29904;51.058;5.378;2023-08-06T05:16:04;2.65;;;1.30;;
44228;SDS011;29904;51.058;5.378;2023-08-06T05:18:30;2.50;;;0.80;;
44228;SDS011;29904;51.058;5.378;2023-08-06T05:20:56;2.25;;;0.50;;
44228;SDS011;29904;51.058;5.378;2023-08-06T05:23:22;1.38;;;0.60;;
44228;SDS011;29904;51.058;5.378;2023-08-06T05:25:50;1.30;;;0.50;;
44228;SDS011;29904;51.058;5.378;2023-08-06T05:28:15;0.60;;;0.40;;
44228;SDS011;29904;51.058;5.378;2023-08-06T05:30:41;1.10;;;0.53;;
44228;SDS011;29904;51.058;5.378;2023-08-06T05:33:07;0.50;;;0.38;;
44228;SDS011;29904;51.058;5.378;2023-08-06T05:35:35;1.05;;;0.38;;
44228;SDS011;29904;51.058;5.378;2023-08-06T05:38:00;0.70;;;0.40;;
44228;SDS011;29904;51.058;5.378;2023-08-06T05:40:26;1.30;;;0.45;;
44228;SDS011;29904;51.058;5.378;2023-08-06T05:42:54;0.80;;;0.40;;
44228;SDS011;29904;51.058;5.378;2023-08-06T05:45:20;0.30;;;0.30;;
44228;SDS011;29904;51.058;5.378;2023-08-06T05:47:47;1.15;;;0.65;;
44228;SDS011;29904;51.058;5.378;2023-08-06T05:50:14;1.40;;;0.80;;
44228;SDS011;29904;51.058;5.378;2023-08-06T05:52:40;1.10;;;0.80;;
44228;SDS011;29904;51.058;5.378;2023-08-06T05:55:06;4.38;;;1.00;;
44228;SDS011;29904;51.058;5.378;2023-08-06T05:57:32;2.97;;;1.50;;
44228;SDS011;29904;51.058;5.378;2023-08-06T05:59:58;3.78;;;1.70;;
44228;SDS011;29904;51.058;5.378;2023-08-06T06:02:23;3.43;;;2.23;;
44228;SDS011;29904;51.058;5.378;2023-08-06T06:04:51;4.95;;;2.80;;
44228;SDS011;29904;51.058;5.378;2023-08-06T06:07:17;4.68;;;3.13;;
44228;SDS011;29904;51.058;5.378;2023-08-06T06:09:42;5.28;;;3.42;;
44228;SDS011;29904;51.058;5.378;2023-08-06T06:12:08;6.10;;;3.92;;
44228;SDS011;29904;51.058;5.378;2023-08-06T06:14:34;4.93;;;3.50;;
44228;SDS011;29904;51.058;5.378;2023-08-06T06:17:00;6.57;;;3.10;;
44228;SDS011;29904;51.058;5.378;2023-08-06T06:19:26;2.88;;;2.28;;
44228;SDS011;29904;51.058;5.378;2023-08-06T06:21:52;2.35;;;1.40;;
44228;SDS011;29904;51.058;5.378;2023-08-06T06:24:18;1.38;;;1.10;;
44228;SDS011;29904;51.058;5.378;2023-08-06T06:26:44;0.77;;;0.60;;
44228;SDS011;29904;51.058;5.378;2023-08-06T06:29:10;1.50;;;0.65;;
44228;SDS011;29904;51.058;5.378;2023-08-06T06:31:35;1.13;;;0.57;;
44228;SDS011;29904;51.058;5.378;2023-08-06T06:34:01;1.30;;;0.60;;
44228;SDS011;29904;51.058;5.378;2023-08-06T06:36:27;1.02;;;0.70;;
44228;SDS011;29904;51.058;5.378;2023-08-06T06:38:53;1.53;;;0.80;;
44228;SDS011;29904;51.058;5.378;2023-08-06T06:41:18;2.83;;;1.40;;
44228;SDS011;29904;51.058;5.378;2023-08-06T06:43:44;2.90;;;1.50;;
44228;SDS011;29904;51.058;5.378;2023-08-06T06:46:10;2.42;;;1.67;;
44228;SDS011;29904;51.058;5.378;2023-08-06T06:48:36;3.67;;;1.93;;
44228;SDS011;29904;51.058;5.378;2023-08-06T06:51:01;5.33;;;1.90;;
44228;SDS011;29904;51.058;5.378;2023-08-06T06:53:28;3.22;;;2.10;;
44228;SDS011;29904;51.058;5.378;2023-08-06T06:56:01;3.63;;;2.00;;
44228;SDS011;29904;51.058;5.378;2023-08-06T06:58:30;3.08;;;2.10;;
44228;SDS011;29904;51.058;5.378;2023-08-06T07:00:56;5.95;;;2.58;;
44228;SDS011;29904;51.058;5.378;2023-08-06T07:03:22;3.40;;;2.30;;
44228;SDS011;29904;51.058;5.378;2023-08-06T07:05:48;3.70;;;2.60;;
44228;SDS011;29904;51.058;5.378;2023-08-06T07:08:14;3.95;;;2.55;;
44228;SDS011;29904;51.058;5.378;2023-08-06T07:10:40;4.70;;;2.83;;
44228;SDS011;29904;51.058;5.378;2023-08-06T07:13:07;4.22;;;2.70;;
44228;SDS011;29904;51.058;5.378;2023-08-06T07:15:33;4.47;;;2.70;;
44228;SDS011;29904;51.058;5.378;2023-08-06T07:17:58;4.33;;;2.77;;
44228;SDS011;29904;51.058;5.378;2023-08-06T07:20:24;5.17;;;2.73;;
44228;SDS011;29904;51.058;5.378;2023-08-06T07:22:50;4.20;;;2.70;;
44228;SDS011;29904;51.058;5.378;2023-08-06T07:25:16;5.20;;;2.95;;
44228;SDS011;29904;51.058;5.378;2023-08-06T07:27:42;4.13;;;2.90;;
44228;SDS011;29904;51.058;5.378;2023-08-06T07:30:08;5.10;;;3.00;;
44228;SDS011;29904;51.058;5.378;2023-08-06T07:32:34;3.78;;;2.80;;
44228;SDS011;29904;51.058;5.378;2023-08-06T07:35:00;4.20;;;2.42;;
44228;SDS011;29904;51.058;5.378;2023-08-06T07:37:27;3.92;;;2.45;;
44228;SDS011;29904;51.058;5.378;2023-08-06T07:39:56;4.57;;;2.50;;
44228;SDS011;29904;51.058;5.378;2023-08-06T07:42:22;4.13;;;2.20;;
44228;SDS011;29904;51.058;5.378;2023-08-06T07:44:51;3.30;;;2.30;;
44228;SDS011;29904;51.058;5.378;2023-08-06T07:47:19;4.50;;;1.83;;
44228;SDS011;29904;51.058;5.378;2023-08-06T07:49:44;3.13;;;1.55;;
44228;SDS011;29904;51.058;5.378;2023-08-06T07:52:10;4.47;;;2.08;;
44228;SDS011;29904;51.058;5.378;2023-08-06T07:54:36;3.67;;;1.50;;
44228;SDS011;29904;51.058;5.378;2023-08-06T07:57:02;4.70;;;1.67;;
44228;SDS011;29904;51.058;5.378;2023-08-06T07:59:27;2.40;;;1.20;;
44228;SDS011;29904;51.058;5.378;2023-08-06T08:01:53;3.53;;;1.23;;
44228;SDS011;29904;51.058;5.378;2023-08-06T08:04:19;4.13;;;1.60;;
44228;SDS011;29904;51.058;5.378;2023-08-06T08:06:46;4.00;;;1.50;;
44228;SDS011;29904;51.058;5.378;2023-08-06T08:09:12;3.72;;;1.60;;
44228;SDS011;29904;51.058;5.378;2023-08-06T08:11:38;3.08;;;1.50;;
44228;SDS011;29904;51.058;5.378;2023-08-06T08:14:05;4.97;;;1.70;;
44228;SDS011;29904;51.058;5.378;2023-08-06T08:16:30;4.68;;;1.80;;
44228;SDS011;29904;51.058;5.378;2023-08-06T08:18:56;2.90;;;1.45;;
44228;SDS011;29904;51.058;5.378;2023-08-06T08:21:22;4.80;;;1.75;;
44228;SDS011;29904;51.058;5.378;2023-08-06T08:23:49;7.00;;;1.80;;
44228;SDS011;29904;51.058;5.378;2023-08-06T08:26:15;5.70;;;1.77;;
44228;SDS011;29904;51.058;5.378;2023-08-06T08:28:41;4.30;;;2.00;;
44228;SDS011;29904;51.058;5.378;2023-08-06T08:31:10;5.17;;;1.57;;
44228;SDS011;29904;51.058;5.378;2023-08-06T08:33:37;5.00;;;1.65;;
44228;SDS011;29904;51.058;5.378;2023-08-06T08:36:03;4.43;;;1.75;;
44228;SDS011;29904;51.058;5.378;2023-08-06T08:38:29;4.85;;;1.70;;
44228;SDS011;29904;51.058;5.378;2023-08-06T08:40:55;4.50;;;1.40;;
44228;SDS011;29904;51.058;5.378;2023-08-06T08:43:21;5.10;;;1.75;;
44228;SDS011;29904;51.058;5.378;2023-08-06T08:45:51;4.65;;;1.45;;
44228;SDS011;29904;51.058;5.378;2023-08-06T08:48:25;6.67;;;1.47;;
44228;SDS011;29904;51.058;5.378;2023-08-06T08:50:54;3.50;;;1.57;;
44228;SDS011;29904;51.058;5.378;2023-08-06T08:53:21;5.05;;;1.17;;
44228;SDS011;29904;51.058;5.378;2023-08-06T08:55:48;7.82;;;1.55;;
44228;SDS011;29904;51.058;5.378;2023-08-06T08:58:14;5.60;;;1.38;;
44228;SDS011;29904;51.058;5.378;2023-08-06T09:00:42;5.15;;;1.10;;
44228;SDS011;29904;51.058;5.378;2023-08-06T09:03:10;8.85;;;1.10;;
44228;SDS011;29904;51.058;5.378;2023-08-06T09:05:36;8.27;;;1.38;;
44228;SDS011;29904;51.058;5.378;2023-08-06T09:08:08;7.60;;;1.20;;
44228;SDS011;29904;51.058;5.378;2023-08-06T09:10:38;5.88;;;1.23;;
44228;SDS011;29904;51.058;5.378;2023-08-06T09:13:06;6.68;;;1.30;;
44228;SDS011;29904;51.058;5.378;2023-08-06T09:15:32;7.75;;;1.25;;
44228;SDS011;29904;51.058;5.378;2023-08-06T09:17:58;8.45;;;1.33;;
44228;SDS011;29904;51.058;5.378;2023-08-06T09:20:24;5.67;;;0.97;;
44228;SDS011;29904;51.058;5.378;2023-08-06T09:22:52;6.32;;;1.40;;
44228;SDS011;29904;51.058;5.378;2023-08-06T09:25:22;5.82;;;1.48;;
44228;SDS011;29904;51.058;5.378;2023-08-06T09:27:50;5.85;;;1.10;;
44228;SDS011;29904;51.058;5.378;2023-08-06T09:30:29;4.45;;;1.20;;
44228;SDS011;29904;51.058;5.378;2023-08-06T09:32:56;4.23;;;1.00;;
44228;SDS011;29904;51.058;5.378;2023-08-06T09:35:22;5.13;;;1.20;;
44228;SDS011;29904;51.058;5.378;2023-08-06T09:37:48;5.07;;;1.13;;
44228;SDS011;29904;51.058;5.378;2023-08-06T09:40:29;6.25;;;1.27;;
44228;SDS011;29904;51.058;5.378;2023-08-06T09:42:57;4.95;;;1.02;;
44228;SDS011;29904;51.058;5.378;2023-08-06T09:45:28;6.95;;;1.20;;
44228;SDS011;29904;51.058;5.378;2023-08-06T09:47:57;6.73;;;1.30;;
44228;SDS011;29904;51.058;5.378;2023-08-06T09:50:23;4.68;;;1.20;;
44228;SDS011;29904;51.058;5.378;2023-08-06T09:52:53;5.65;;;1.20;;
44228;SDS011;29904;51.058;5.378;2023-08-06T09:55:21;3.20;;;1.08;;
44228;SDS011;29904;51.058;5.378;2023-08-06T09:57:48;5.10;;;1.30;;
44228;SDS011;29904;51.058;5.378;2023-08-06T10:00:15;6.63;;;1.10;;
44228;SDS011;29904;51.058;5.378;2023-08-06T10:02:41;4.25;;;0.90;;
44228;SDS011;29904;51.058;5.378;2023-08-06T10:05:08;5.50;;;0.90;;
44228;SDS011;29904;51.058;5.378;2023-08-06T10:07:36;5.85;;;1.10;;
44228;SDS011;29904;51.058;5.378;2023-08-06T10:10:05;6.70;;;1.10;;
44228;SDS011;29904;51.058;5.378;2023-08-06T10:12:32;5.30;;;1.00;;
44228;SDS011;29904;51.058;5.378;2023-08-06T10:15:12;2.85;;;0.75;;
44228;SDS011;29904;51.058;5.378;2023-08-06T10:17:41;5.40;;;0.80;;
44228;SDS011;29904;51.058;5.378;2023-08-06T10:20:08;4.75;;;0.80;;
44228;SDS011;29904;51.058;5.378;2023-08-06T10:22:35;3.88;;;1.10;;
44228;SDS011;29904;51.058;5.378;2023-08-06T10:25:01;4.00;;;1.00;;
44228;SDS011;29904;51.058;5.378;2023-08-06T10:32:59;2.92;;;0.90;;
44228;SDS011;29904;51.058;5.378;2023-08-06T10:40:43;4.07;;;1.13;;
44228;SDS011;29904;51.058;5.378;2023-08-06T10:43:52;5.47;;;1.20;;
44228;SDS011;29904;51.058;5.378;2023-08-06T10:46:21;3.33;;;0.98;;
44228;SDS011;29904;51.058;5.378;2023-08-06T10:48:48;4.60;;;0.77;;
44228;SDS011;29904;51.058;5.378;2023-08-06T10:51:14;3.42;;;0.70;;
44228;SDS011;29904;51.058;5.378;2023-08-06T10:53:47;3.15;;;1.10;;
44228;SDS011;29904;51.058;5.378;2023-08-06T10:56:17;4.63;;;0.90;;
44228;SDS011;29904;51.058;5.378;2023-08-06T10:58:47;2.22;;;0.60;;
44228;SDS011;29904;51.058;5.378;2023-08-06T11:01:13;2.85;;;0.77;;
44228;SDS011;29904;51.058;5.378;2023-08-06T11:03:41;3.05;;;0.80;;
44228;SDS011;29904;51.058;5.378;2023-08-06T11:06:08;3.87;;;0.90;;
44228;SDS011;29904;51.058;5.378;2023-08-06T11:08:35;4.20;;;1.02;;
44228;SDS011;29904;51.058;5.378;2023-08-06T11:11:12;2.92;;;1.08;;
44228;SDS011;29904;51.058;5.378;2023-08-06T11:13:40;4.57;;;0.90;;
44228;SDS011;29904;51.058;5.378;2023-08-06T11:16:14;2.15;;;0.70;;
44228;SDS011;29904;51.058;5.378;2023-08-06T11:18:45;1.50;;;0.70;;
44228;SDS011;29904;51.058;5.378;2023-08-06T11:21:12;3.05;;;1.02;;
44228;SDS011;29904;51.058;5.378;2023-08-06T11:23:38;3.45;;;1.10;;
44228;SDS011;29904;51.058;5.378;2023-08-06T11:26:05;2.60;;;1.00;;
44228;SDS011;29904;51.058;5.378;2023-08-06T11:28:31;2.70;;;0.80;;
44228;SDS011;29904;51.058;5.378;2023-08-06T11:30:57;4.47;;;0.90;;
44228;SDS011;29904;51.058;5.378;2023-08-06T11:33:26;3.70;;;0.90;;
44228;SDS011;29904;51.058;5.378;2023-08-06T11:35:54;3.90;;;1.00;;
44228;SDS011;29904;51.058;5.378;2023-08-06T11:38:21;4.22;;;1.17;;
44228;SDS011;29904;51.058;5.378;2023-08-06T11:40:50;3.67;;;1.02;;
44228;SDS011;29904;51.058;5.378;2023-08-06T11:43:16;5.00;;;1.67;;
44228;SDS011;29904;51.058;5.378;2023-08-06T11:45:43;3.72;;;1.00;;
44228;SDS011;29904;51.058;5.378;2023-08-06T11:48:11;4.20;;;0.80;;
44228;SDS011;29904;51.058;5.378;2023-08-06T11:50:37;6.18;;;0.80;;
44228;SDS011;29904;51.058;5.378;2023-08-06T11:53:04;4.68;;;0.80;;
44228;SDS011;29904;51.058;5.378;2023-08-06T11:55:32;3.88;;;0.70;;
44228;SDS011;29904;51.058;5.378;2023-08-06T11:57:58;2.78;;;0.60;;
44228;SDS011;29904;51.058;5.378;2023-08-06T12:00:28;5.15;;;0.68;;
44228;SDS011;29904;51.058;5.378;2023-08-06T12:02:55;2.40;;;0.60;;
44228;SDS011;29904;51.058;5.378;2023-08-06T12:05:22;3.35;;;0.60;;
44228;SDS011;29904;51.058;5.378;2023-08-06T12:07:52;5.25;;;0.75;;
44228;SDS011;29904;51.058;5.378;2023-08-06T12:10:25;3.70;;;0.73;;
44228;SDS011;29904;51.058;5.378;2023-08-06T12:12:52;4.43;;;0.50;;
44228;SDS011;29904;51.058;5.378;2023-08-06T12:15:19;3.80;;;1.00;;
44228;SDS011;29904;51.058;5.378;2023-08-06T12:17:45;2.28;;;0.65;;
44228;SDS011;29904;51.058;5.378;2023-08-06T12:20:11;2.53;;;0.43;;
44228;SDS011;29904;51.058;5.378;2023-08-06T12:22:38;2.10;;;0.40;;
44228;SDS011;29904;51.058;5.378;2023-08-06T12:25:11;2.50;;;0.50;;
44228;SDS011;29904;51.058;5.378;2023-08-06T12:27:38;3.17;;;0.40;;
44228;SDS011;29904;51.058;5.378;2023-08-06T12:30:09;3.63;;;0.60;;
44228;SDS011;29904;51.058;5.378;2023-08-06T12:32:38;4.38;;;0.45;;
44228;SDS011;29904;51.058;5.378;2023-08-06T12:35:04;2.78;;;0.50;;
44228;SDS011;29904;51.058;5.378;2023-08-06T12:37:33;3.65;;;0.50;;
44228;SDS011;29904;51.058;5.378;2023-08-06T12:39:59;3.22;;;0.70;;
44228;SDS011;29904;51.058;5.378;2023-08-06T12:42:25;3.00;;;0.60;;
44228;SDS011;29904;51.058;5.378;2023-08-06T12:44:53;1.50;;;0.55;;
44228;SDS011;29904;51.058;5.378;2023-08-06T12:47:19;1.27;;;0.50;;
44228;SDS011;29904;51.058;5.378;2023-08-06T12:49:45;2.33;;;0.45;;
44228;SDS011;29904;51.058;5.378;2023-08-06T12:52:10;2.28;;;0.70;;
44228;SDS011;29904;51.058;5.378;2023-08-06T12:54:37;2.55;;;0.50;;
44228;SDS011;29904;51.058;5.378;2023-08-06T12:57:03;2.10;;;0.55;;
44228;SDS011;29904;51.058;5.378;2023-08-06T12:59:30;2.72;;;0.90;;
44228;SDS011;29904;51.058;5.378;2023-08-06T13:01:58;4.10;;;0.90;;
44228;SDS011;29904;51.058;5.378;2023-08-06T13:04:26;2.53;;;0.70;;
44228;SDS011;29904;51.058;5.378;2023-08-06T13:06:52;3.55;;;0.80;;
44228;SDS011;29904;51.058;5.378;2023-08-06T13:09:18;2.35;;;0.68;;
44228;SDS011;29904;51.058;5.378;2023-08-06T13:11:44;3.47;;;0.70;;
44228;SDS011;29904;51.058;5.378;2023-08-06T13:14:12;4.30;;;0.82;;
44228;SDS011;29904;51.058;5.378;2023-08-06T13:16:40;3.67;;;0.90;;
44228;SDS011;29904;51.058;5.378;2023-08-06T13:19:06;3.47;;;0.80;;
44228;SDS011;29904;51.058;5.378;2023-08-06T13:24:11;3.63;;;0.60;;
44228;SDS011;29904;51.058;5.378;2023-08-06T13:26:36;3.85;;;0.70;;
44228;SDS011;29904;51.058;5.378;2023-08-06T13:29:03;3.40;;;0.90;;
44228;SDS011;29904;51.058;5.378;2023-08-06T13:31:33;4.70;;;0.70;;
44228;SDS011;29904;51.058;5.378;2023-08-06T13:33:59;3.38;;;0.77;;
44228;SDS011;29904;51.058;5.378;2023-08-06T13:36:25;3.43;;;0.70;;
44228;SDS011;29904;51.058;5.378;2023-08-06T13:38:53;2.88;;;0.93;;
44228;SDS011;29904;51.058;5.378;2023-08-06T13:41:19;3.58;;;0.77;;
44228;SDS011;29904;51.058;5.378;2023-08-06T13:43:45;2.78;;;0.63;;
44228;SDS011;29904;51.058;5.378;2023-08-06T13:46:11;2.57;;;0.60;;
44228;SDS011;29904;51.058;5.378;2023-08-06T13:48:41;3.13;;;0.50;;
44228;SDS011;29904;51.058;5.378;2023-08-06T13:51:07;2.67;;;0.40;;
44228;SDS011;29904;51.058;5.378;2023-08-06T13:53:36;1.90;;;0.40;;
44228;SDS011;29904;51.058;5.378;2023-08-06T13:56:02;3.25;;;0.40;;
44228;SDS011;29904;51.058;5.378;2023-08-06T13:58:29;1.40;;;0.33;;
44228;SDS011;29904;51.058;5.378;2023-08-06T14:00:55;1.57;;;0.43;;
44228;SDS011;29904;51.058;5.378;2023-08-06T14:03:21;2.10;;;0.40;;
44228;SDS011;29904;51.058;5.378;2023-08-06T14:05:47;1.83;;;0.40;;
44228;SDS011;29904;51.058;5.378;2023-08-06T14:08:13;2.45;;;0.63;;
44228;SDS011;29904;51.058;5.378;2023-08-06T14:10:40;2.88;;;0.60;;
44228;SDS011;29904;51.058;5.378;2023-08-06T14:13:05;2.72;;;0.60;;
44228;SDS011;29904;51.058;5.378;2023-08-06T14:15:31;4.20;;;0.60;;
44228;SDS011;29904;51.058;5.378;2023-08-06T14:17:58;2.87;;;0.60;;
44228;SDS011;29904;51.058;5.378;2023-08-06T14:20:24;3.20;;;0.80;;
44228;SDS011;29904;51.058;5.378;2023-08-06T14:22:49;2.63;;;0.60;;
44228;SDS011;29904;51.058;5.378;2023-08-06T14:25:15;4.00;;;0.60;;
44228;SDS011;29904;51.058;5.378;2023-08-06T14:27:41;1.80;;;0.50;;
44228;SDS011;29904;51.058;5.378;2023-08-06T14:30:11;1.80;;;0.50;;
44228;SDS011;29904;51.058;5.378;2023-08-06T14:32:36;1.95;;;0.40;;
44228;SDS011;29904;51.058;5.378;2023-08-06T14:35:02;2.60;;;0.43;;
44228;SDS011;29904;51.058;5.378;2023-08-06T14:37:28;1.38;;;0.45;;
44228;SDS011;29904;51.058;5.378;2023-08-06T14:39:54;0.85;;;0.25;;
44228;SDS011;29904;51.058;5.378;2023-08-06T14:42:19;1.95;;;0.30;;
44228;SDS011;29904;51.058;5.378;2023-08-06T14:44:46;2.15;;;0.40;;
44228;SDS011;29904;51.058;5.378;2023-08-06T14:47:11;1.00;;;0.30;;
44228;SDS011;29904;51.058;5.378;2023-08-06T14:49:37;1.50;;;0.30;;
44228;SDS011;29904;51.058;5.378;2023-08-06T14:52:05;1.15;;;0.30;;
44228;SDS011;29904;51.058;5.378;2023-08-06T14:54:31;1.20;;;0.30;;
44228;SDS011;29904;51.058;5.378;2023-08-06T14:56:57;1.13;;;0.30;;
44228;SDS011;29904;51.058;5.378;2023-08-06T14:59:22;1.83;;;0.40;;
44228;SDS011;29904;51.058;5.378;2023-08-06T15:01:48;2.03;;;0.40;;
44228;SDS011;29904;51.058;5.378;2023-08-06T15:04:14;0.73;;;0.20;;
44228;SDS011;29904;51.058;5.378;2023-08-06T15:06:44;1.45;;;0.30;;